sensor_id;sensor_type;location;lat;lon;timestamp;P1;durP1;ratioP1;P2;durP2;ratioP2
19105;SDS011;9685;54.338;18.672;2023-09-19T00:01:34;31.80;;;27.63;;
19105;SDS011;9685;54.338;18.672;2023-09-19T00:04:03;33.43;;;27.67;;
19105;SDS011;9685;54.338;18.672;2023-09-19T00:06:34;34.73;;;27.73;;
19105;SDS011;9685;54.338;18.672;2023-09-19T00:09:02;34.67;;;28.13;;
19105;SDS011;9685;54.338;18.672;2023-09-19T00:11:29;33.47;;;28.53;;
19105;SDS011;9685;54.338;18.672;2023-09-19T00:13:57;32.13;;;27.53;;
19105;SDS011;9685;54.338;18.672;2023-09-19T00:16:25;35.97;;;28.77;;
19105;SDS011;9685;54.338;18.672;2023-09-19T00:18:52;34.70;;;28.20;;
19105;SDS011;9685;54.338;18.672;2023-09-19T00:21:20;33.90;;;28.00;;
19105;SDS011;9685;54.338;18.672;2023-09-19T00:23:48;34.83;;;28.93;;
19105;SDS011;9685;54.338;18.672;2023-09-19T00:26:16;35.07;;;29.50;;
19105;SDS011;9685;54.338;18.672;2023-09-19T00:28:46;35.93;;;29.27;;
19105;SDS011;9685;54.338;18.672;2023-09-19T00:31:13;42.73;;;29.67;;
19105;SDS011;9685;54.338;18.672;2023-09-19T00:33:39;38.73;;;29.83;;
19105;SDS011;9685;54.338;18.672;2023-09-19T00:36:07;37.83;;;29.80;;
19105;SDS011;9685;54.338;18.672;2023-09-19T00:38:36;38.57;;;30.70;;
19105;SDS011;9685;54.338;18.672;2023-09-19T00:41:03;33.10;;;29.60;;
19105;SDS011;9685;54.338;18.672;2023-09-19T00:43:29;36.57;;;29.00;;
19105;SDS011;9685;54.338;18.672;2023-09-19T00:45:59;38.10;;;29.80;;
19105;SDS011;9685;54.338;18.672;2023-09-19T00:48:28;36.07;;;29.43;;
19105;SDS011;9685;54.338;18.672;2023-09-19T00:50:55;33.13;;;28.13;;
19105;SDS011;9685;54.338;18.672;2023-09-19T00:53:25;35.80;;;28.50;;
19105;SDS011;9685;54.338;18.672;2023-09-19T00:55:53;36.87;;;28.33;;
19105;SDS011;9685;54.338;18.672;2023-09-19T00:58:22;33.83;;;27.63;;
19105;SDS011;9685;54.338;18.672;2023-09-19T01:00:49;34.07;;;28.70;;
19105;SDS011;9685;54.338;18.672;2023-09-19T01:03:18;31.97;;;27.50;;
19105;SDS011;9685;54.338;18.672;2023-09-19T01:05:45;32.30;;;27.53;;
19105;SDS011;9685;54.338;18.672;2023-09-19T01:08:12;31.97;;;27.47;;
19105;SDS011;9685;54.338;18.672;2023-09-19T01:10:39;33.97;;;27.93;;
19105;SDS011;9685;54.338;18.672;2023-09-19T01:13:19;32.73;;;27.27;;
19105;SDS011;9685;54.338;18.672;2023-09-19T01:15:55;34.20;;;26.77;;
19105;SDS011;9685;54.338;18.672;2023-09-19T01:18:30;37.00;;;27.23;;
19105;SDS011;9685;54.338;18.672;2023-09-19T01:21:08;30.70;;;26.17;;
19105;SDS011;9685;54.338;18.672;2023-09-19T01:23:51;35.37;;;27.50;;
19105;SDS011;9685;54.338;18.672;2023-09-19T01:26:42;30.30;;;26.10;;
19105;SDS011;9685;54.338;18.672;2023-09-19T01:29:26;32.20;;;27.00;;
19105;SDS011;9685;54.338;18.672;2023-09-19T01:32:06;32.23;;;27.17;;
19105;SDS011;9685;54.338;18.672;2023-09-19T01:34:45;32.07;;;27.33;;
19105;SDS011;9685;54.338;18.672;2023-09-19T01:37:16;33.93;;;27.90;;
19105;SDS011;9685;54.338;18.672;2023-09-19T01:39:45;35.03;;;28.63;;
19105;SDS011;9685;54.338;18.672;2023-09-19T01:42:18;33.27;;;28.43;;
19105;SDS011;9685;54.338;18.672;2023-09-19T01:44:57;34.73;;;28.97;;
19105;SDS011;9685;54.338;18.672;2023-09-19T01:47:35;35.30;;;29.77;;
19105;SDS011;9685;54.338;18.672;2023-09-19T01:50:12;36.00;;;30.13;;
19105;SDS011;9685;54.338;18.672;2023-09-19T01:52:46;39.47;;;30.73;;
19105;SDS011;9685;54.338;18.672;2023-09-19T01:55:19;36.50;;;29.83;;
19105;SDS011;9685;54.338;18.672;2023-09-19T01:57:48;36.20;;;30.93;;
19105;SDS011;9685;54.338;18.672;2023-09-19T02:00:20;36.80;;;30.43;;
19105;SDS011;9685;54.338;18.672;2023-09-19T02:02:50;40.37;;;31.47;;
19105;SDS011;9685;54.338;18.672;2023-09-19T02:05:23;35.70;;;30.67;;
19105;SDS011;9685;54.338;18.672;2023-09-19T02:07:52;40.70;;;30.57;;
19105;SDS011;9685;54.338;18.672;2023-09-19T02:10:20;39.77;;;31.93;;
19105;SDS011;9685;54.338;18.672;2023-09-19T02:12:48;37.50;;;30.07;;
19105;SDS011;9685;54.338;18.672;2023-09-19T02:15:16;40.43;;;31.80;;
19105;SDS011;9685;54.338;18.672;2023-09-19T02:17:43;35.70;;;29.47;;
19105;SDS011;9685;54.338;18.672;2023-09-19T02:20:12;37.87;;;31.10;;
19105;SDS011;9685;54.338;18.672;2023-09-19T02:22:41;38.10;;;30.13;;
19105;SDS011;9685;54.338;18.672;2023-09-19T02:25:09;39.60;;;32.03;;
19105;SDS011;9685;54.338;18.672;2023-09-19T02:27:38;38.90;;;31.30;;
19105;SDS011;9685;54.338;18.672;2023-09-19T02:30:06;37.03;;;31.00;;
19105;SDS011;9685;54.338;18.672;2023-09-19T02:32:33;35.07;;;31.23;;
19105;SDS011;9685;54.338;18.672;2023-09-19T02:35:04;35.73;;;28.47;;
19105;SDS011;9685;54.338;18.672;2023-09-19T02:37:33;34.23;;;29.07;;
19105;SDS011;9685;54.338;18.672;2023-09-19T02:40:01;34.37;;;29.40;;
19105;SDS011;9685;54.338;18.672;2023-09-19T02:42:43;36.43;;;28.57;;
19105;SDS011;9685;54.338;18.672;2023-09-19T02:45:13;39.83;;;31.33;;
19105;SDS011;9685;54.338;18.672;2023-09-19T02:47:41;53.50;;;37.07;;
19105;SDS011;9685;54.338;18.672;2023-09-19T02:50:09;56.03;;;37.90;;
19105;SDS011;9685;54.338;18.672;2023-09-19T02:52:40;53.30;;;38.37;;
19105;SDS011;9685;54.338;18.672;2023-09-19T02:55:09;48.87;;;37.90;;
19105;SDS011;9685;54.338;18.672;2023-09-19T02:57:36;47.70;;;39.07;;
19105;SDS011;9685;54.338;18.672;2023-09-19T03:00:06;53.17;;;40.40;;
19105;SDS011;9685;54.338;18.672;2023-09-19T03:02:35;49.77;;;37.60;;
19105;SDS011;9685;54.338;18.672;2023-09-19T03:05:03;51.07;;;38.17;;
19105;SDS011;9685;54.338;18.672;2023-09-19T03:07:31;53.03;;;41.67;;
19105;SDS011;9685;54.338;18.672;2023-09-19T03:09:59;54.63;;;39.53;;
19105;SDS011;9685;54.338;18.672;2023-09-19T03:12:26;55.43;;;41.67;;
19105;SDS011;9685;54.338;18.672;2023-09-19T03:14:53;53.10;;;41.07;;
19105;SDS011;9685;54.338;18.672;2023-09-19T03:17:20;52.70;;;39.77;;
19105;SDS011;9685;54.338;18.672;2023-09-19T03:19:47;56.10;;;41.17;;
19105;SDS011;9685;54.338;18.672;2023-09-19T03:22:14;53.97;;;39.87;;
19105;SDS011;9685;54.338;18.672;2023-09-19T03:24:42;45.37;;;34.50;;
19105;SDS011;9685;54.338;18.672;2023-09-19T03:27:11;42.80;;;33.43;;
19105;SDS011;9685;54.338;18.672;2023-09-19T03:29:39;47.00;;;36.87;;
19105;SDS011;9685;54.338;18.672;2023-09-19T03:32:06;48.07;;;36.57;;
19105;SDS011;9685;54.338;18.672;2023-09-19T03:34:35;47.93;;;36.73;;
19105;SDS011;9685;54.338;18.672;2023-09-19T03:37:03;45.57;;;35.97;;
19105;SDS011;9685;54.338;18.672;2023-09-19T03:39:31;31.40;;;24.13;;
19105;SDS011;9685;54.338;18.672;2023-09-19T03:41:58;22.73;;;18.17;;
19105;SDS011;9685;54.338;18.672;2023-09-19T03:44:26;22.57;;;16.83;;
19105;SDS011;9685;54.338;18.672;2023-09-19T03:46:53;37.70;;;29.33;;
19105;SDS011;9685;54.338;18.672;2023-09-19T03:49:22;41.27;;;31.37;;
19105;SDS011;9685;54.338;18.672;2023-09-19T03:51:49;40.43;;;33.13;;
19105;SDS011;9685;54.338;18.672;2023-09-19T03:54:15;40.47;;;32.47;;
19105;SDS011;9685;54.338;18.672;2023-09-19T03:56:44;38.87;;;30.13;;
19105;SDS011;9685;54.338;18.672;2023-09-19T03:59:11;38.73;;;30.20;;
19105;SDS011;9685;54.338;18.672;2023-09-19T04:01:40;40.97;;;32.50;;
19105;SDS011;9685;54.338;18.672;2023-09-19T04:04:08;31.10;;;25.03;;
19105;SDS011;9685;54.338;18.672;2023-09-19T04:06:35;43.20;;;30.37;;
19105;SDS011;9685;54.338;18.672;2023-09-19T04:09:02;40.20;;;30.93;;
19105;SDS011;9685;54.338;18.672;2023-09-19T04:11:31;38.33;;;28.33;;
19105;SDS011;9685;54.338;18.672;2023-09-19T04:13:59;31.67;;;25.33;;
19105;SDS011;9685;54.338;18.672;2023-09-19T04:16:29;29.57;;;23.33;;
19105;SDS011;9685;54.338;18.672;2023-09-19T04:18:57;26.83;;;20.00;;
19105;SDS011;9685;54.338;18.672;2023-09-19T04:21:24;25.60;;;19.80;;
19105;SDS011;9685;54.338;18.672;2023-09-19T04:23:51;23.20;;;19.07;;
19105;SDS011;9685;54.338;18.672;2023-09-19T04:26:18;27.53;;;19.47;;
19105;SDS011;9685;54.338;18.672;2023-09-19T04:28:46;28.33;;;19.27;;
19105;SDS011;9685;54.338;18.672;2023-09-19T04:31:13;24.40;;;19.33;;
19105;SDS011;9685;54.338;18.672;2023-09-19T04:33:41;25.20;;;18.93;;
19105;SDS011;9685;54.338;18.672;2023-09-19T04:36:10;24.80;;;17.63;;
19105;SDS011;9685;54.338;18.672;2023-09-19T04:38:38;21.07;;;15.27;;
19105;SDS011;9685;54.338;18.672;2023-09-19T04:41:05;15.97;;;11.87;;
19105;SDS011;9685;54.338;18.672;2023-09-19T04:43:32;17.17;;;11.87;;
19105;SDS011;9685;54.338;18.672;2023-09-19T04:45:59;17.20;;;12.23;;
19105;SDS011;9685;54.338;18.672;2023-09-19T04:48:26;15.40;;;12.83;;
19105;SDS011;9685;54.338;18.672;2023-09-19T04:50:54;16.40;;;12.60;;
19105;SDS011;9685;54.338;18.672;2023-09-19T04:53:22;17.63;;;13.30;;
19105;SDS011;9685;54.338;18.672;2023-09-19T04:55:50;19.60;;;12.83;;
19105;SDS011;9685;54.338;18.672;2023-09-19T04:58:20;18.93;;;13.23;;
19105;SDS011;9685;54.338;18.672;2023-09-19T05:00:47;18.90;;;13.57;;
19105;SDS011;9685;54.338;18.672;2023-09-19T05:03:16;15.60;;;13.30;;
19105;SDS011;9685;54.338;18.672;2023-09-19T05:05:46;19.67;;;14.73;;
19105;SDS011;9685;54.338;18.672;2023-09-19T05:08:13;25.30;;;16.97;;
19105;SDS011;9685;54.338;18.672;2023-09-19T05:10:42;20.93;;;16.43;;
19105;SDS011;9685;54.338;18.672;2023-09-19T05:13:08;26.47;;;18.10;;
19105;SDS011;9685;54.338;18.672;2023-09-19T05:15:37;26.40;;;20.00;;
19105;SDS011;9685;54.338;18.672;2023-09-19T05:18:04;25.73;;;19.23;;
19105;SDS011;9685;54.338;18.672;2023-09-19T05:20:31;29.83;;;21.23;;
19105;SDS011;9685;54.338;18.672;2023-09-19T05:23:01;25.70;;;20.40;;
19105;SDS011;9685;54.338;18.672;2023-09-19T05:25:31;25.03;;;17.60;;
19105;SDS011;9685;54.338;18.672;2023-09-19T05:28:03;23.93;;;18.30;;
19105;SDS011;9685;54.338;18.672;2023-09-19T05:30:31;29.70;;;18.57;;
19105;SDS011;9685;54.338;18.672;2023-09-19T05:32:58;23.87;;;17.73;;
19105;SDS011;9685;54.338;18.672;2023-09-19T05:35:25;24.17;;;16.73;;
19105;SDS011;9685;54.338;18.672;2023-09-19T05:37:53;21.37;;;15.63;;
19105;SDS011;9685;54.338;18.672;2023-09-19T05:40:21;18.60;;;14.00;;
19105;SDS011;9685;54.338;18.672;2023-09-19T05:42:48;16.10;;;12.10;;
19105;SDS011;9685;54.338;18.672;2023-09-19T05:45:17;17.30;;;13.33;;
19105;SDS011;9685;54.338;18.672;2023-09-19T05:47:47;18.63;;;13.23;;
19105;SDS011;9685;54.338;18.672;2023-09-19T05:50:15;19.63;;;12.30;;
19105;SDS011;9685;54.338;18.672;2023-09-19T05:52:42;16.30;;;12.10;;
19105;SDS011;9685;54.338;18.672;2023-09-19T05:55:09;16.30;;;11.70;;
19105;SDS011;9685;54.338;18.672;2023-09-19T05:57:36;14.57;;;11.63;;
19105;SDS011;9685;54.338;18.672;2023-09-19T06:00:05;17.57;;;11.90;;
19105;SDS011;9685;54.338;18.672;2023-09-19T06:02:36;16.67;;;12.97;;
19105;SDS011;9685;54.338;18.672;2023-09-19T06:05:04;18.13;;;13.57;;
19105;SDS011;9685;54.338;18.672;2023-09-19T06:07:35;17.13;;;12.63;;
19105;SDS011;9685;54.338;18.672;2023-09-19T06:10:02;20.80;;;12.87;;
19105;SDS011;9685;54.338;18.672;2023-09-19T06:12:32;18.83;;;12.83;;
19105;SDS011;9685;54.338;18.672;2023-09-19T06:15:02;19.07;;;13.77;;
19105;SDS011;9685;54.338;18.672;2023-09-19T06:17:30;19.13;;;12.90;;
19105;SDS011;9685;54.338;18.672;2023-09-19T06:19:58;16.50;;;12.00;;
19105;SDS011;9685;54.338;18.672;2023-09-19T06:22:25;14.53;;;11.80;;
19105;SDS011;9685;54.338;18.672;2023-09-19T06:24:52;17.50;;;11.57;;
19105;SDS011;9685;54.338;18.672;2023-09-19T06:27:19;15.93;;;11.23;;
19105;SDS011;9685;54.338;18.672;2023-09-19T06:29:47;17.37;;;10.97;;
19105;SDS011;9685;54.338;18.672;2023-09-19T06:32:14;18.00;;;11.17;;
19105;SDS011;9685;54.338;18.672;2023-09-19T06:34:40;19.37;;;10.50;;
19105;SDS011;9685;54.338;18.672;2023-09-19T06:37:10;18.57;;;11.33;;
19105;SDS011;9685;54.338;18.672;2023-09-19T06:39:37;14.43;;;9.73;;
19105;SDS011;9685;54.338;18.672;2023-09-19T06:42:04;16.93;;;10.00;;
19105;SDS011;9685;54.338;18.672;2023-09-19T06:44:31;16.17;;;10.10;;
19105;SDS011;9685;54.338;18.672;2023-09-19T06:46:58;15.60;;;9.40;;
19105;SDS011;9685;54.338;18.672;2023-09-19T06:49:25;10.70;;;9.03;;
19105;SDS011;9685;54.338;18.672;2023-09-19T06:51:53;13.30;;;7.97;;
19105;SDS011;9685;54.338;18.672;2023-09-19T06:54:23;12.27;;;7.73;;
19105;SDS011;9685;54.338;18.672;2023-09-19T06:56:51;13.37;;;8.90;;
19105;SDS011;9685;54.338;18.672;2023-09-19T06:59:20;9.57;;;7.90;;
19105;SDS011;9685;54.338;18.672;2023-09-19T07:01:47;10.57;;;8.40;;
19105;SDS011;9685;54.338;18.672;2023-09-19T07:04:14;11.23;;;8.13;;
19105;SDS011;9685;54.338;18.672;2023-09-19T07:06:42;13.90;;;8.20;;
19105;SDS011;9685;54.338;18.672;2023-09-19T07:09:11;16.47;;;9.10;;
19105;SDS011;9685;54.338;18.672;2023-09-19T07:11:39;11.50;;;7.60;;
19105;SDS011;9685;54.338;18.672;2023-09-19T07:14:06;9.97;;;7.80;;
19105;SDS011;9685;54.338;18.672;2023-09-19T07:16:33;11.47;;;7.43;;
19105;SDS011;9685;54.338;18.672;2023-09-19T07:19:00;7.30;;;6.33;;
19105;SDS011;9685;54.338;18.672;2023-09-19T07:21:28;10.20;;;6.07;;
19105;SDS011;9685;54.338;18.672;2023-09-19T07:23:56;8.97;;;6.47;;
19105;SDS011;9685;54.338;18.672;2023-09-19T07:26:22;9.43;;;6.77;;
19105;SDS011;9685;54.338;18.672;2023-09-19T07:28:51;8.17;;;5.83;;
19105;SDS011;9685;54.338;18.672;2023-09-19T07:31:18;6.50;;;4.70;;
19105;SDS011;9685;54.338;18.672;2023-09-19T07:33:47;9.50;;;5.40;;
19105;SDS011;9685;54.338;18.672;2023-09-19T07:36:14;10.87;;;4.93;;
19105;SDS011;9685;54.338;18.672;2023-09-19T07:38:41;6.67;;;4.60;;
19105;SDS011;9685;54.338;18.672;2023-09-19T07:41:08;7.23;;;4.73;;
19105;SDS011;9685;54.338;18.672;2023-09-19T07:43:35;6.87;;;6.13;;
19105;SDS011;9685;54.338;18.672;2023-09-19T07:46:05;8.37;;;4.77;;
19105;SDS011;9685;54.338;18.672;2023-09-19T07:48:34;9.83;;;6.07;;
19105;SDS011;9685;54.338;18.672;2023-09-19T07:51:01;7.37;;;4.87;;
19105;SDS011;9685;54.338;18.672;2023-09-19T07:53:29;8.97;;;4.90;;
19105;SDS011;9685;54.338;18.672;2023-09-19T07:56:02;7.33;;;4.53;;
19105;SDS011;9685;54.338;18.672;2023-09-19T07:58:30;8.67;;;4.90;;
19105;SDS011;9685;54.338;18.672;2023-09-19T08:01:01;5.77;;;4.90;;
19105;SDS011;9685;54.338;18.672;2023-09-19T08:03:30;6.30;;;4.90;;
19105;SDS011;9685;54.338;18.672;2023-09-19T08:05:57;7.17;;;5.03;;
19105;SDS011;9685;54.338;18.672;2023-09-19T08:08:25;6.50;;;5.13;;
19105;SDS011;9685;54.338;18.672;2023-09-19T08:10:53;5.93;;;5.00;;
19105;SDS011;9685;54.338;18.672;2023-09-19T08:13:21;6.90;;;5.00;;
19105;SDS011;9685;54.338;18.672;2023-09-19T08:15:48;6.07;;;5.03;;
19105;SDS011;9685;54.338;18.672;2023-09-19T08:18:18;5.13;;;4.63;;
19105;SDS011;9685;54.338;18.672;2023-09-19T08:20:50;6.17;;;4.67;;
19105;SDS011;9685;54.338;18.672;2023-09-19T08:23:18;6.90;;;4.80;;
19105;SDS011;9685;54.338;18.672;2023-09-19T08:25:46;7.57;;;5.00;;
19105;SDS011;9685;54.338;18.672;2023-09-19T08:28:13;10.37;;;5.30;;
19105;SDS011;9685;54.338;18.672;2023-09-19T08:30:45;5.50;;;4.47;;
19105;SDS011;9685;54.338;18.672;2023-09-19T08:33:12;12.03;;;5.00;;
19105;SDS011;9685;54.338;18.672;2023-09-19T08:35:40;5.50;;;4.47;;
19105;SDS011;9685;54.338;18.672;2023-09-19T08:38:09;5.50;;;4.30;;
19105;SDS011;9685;54.338;18.672;2023-09-19T08:40:38;6.43;;;4.40;;
19105;SDS011;9685;54.338;18.672;2023-09-19T08:43:07;9.13;;;4.43;;
19105;SDS011;9685;54.338;18.672;2023-09-19T08:45:34;5.90;;;4.03;;
19105;SDS011;9685;54.338;18.672;2023-09-19T08:48:05;5.83;;;4.30;;
19105;SDS011;9685;54.338;18.672;2023-09-19T08:50:55;8.10;;;4.53;;
19105;SDS011;9685;54.338;18.672;2023-09-19T08:53:29;8.00;;;4.10;;
19105;SDS011;9685;54.338;18.672;2023-09-19T08:56:03;4.10;;;3.70;;
19105;SDS011;9685;54.338;18.672;2023-09-19T08:58:34;3.70;;;3.17;;
19105;SDS011;9685;54.338;18.672;2023-09-19T09:01:06;4.40;;;3.00;;
19105;SDS011;9685;54.338;18.672;2023-09-19T09:03:35;5.93;;;3.42;;
19105;SDS011;9685;54.338;18.672;2023-09-19T09:06:06;6.17;;;3.17;;
19105;SDS011;9685;54.338;18.672;2023-09-19T09:08:37;4.78;;;3.05;;
19105;SDS011;9685;54.338;18.672;2023-09-19T09:11:05;5.90;;;3.10;;
19105;SDS011;9685;54.338;18.672;2023-09-19T09:13:34;7.18;;;2.92;;
19105;SDS011;9685;54.338;18.672;2023-09-19T09:16:01;6.85;;;3.42;;
19105;SDS011;9685;54.338;18.672;2023-09-19T09:18:29;5.43;;;3.30;;
19105;SDS011;9685;54.338;18.672;2023-09-19T09:20:56;4.88;;;3.10;;
19105;SDS011;9685;54.338;18.672;2023-09-19T09:23:23;3.40;;;2.65;;
19105;SDS011;9685;54.338;18.672;2023-09-19T09:25:52;4.93;;;2.70;;
19105;SDS011;9685;54.338;18.672;2023-09-19T09:28:22;4.40;;;2.90;;
19105;SDS011;9685;54.338;18.672;2023-09-19T09:30:50;5.97;;;2.80;;
19105;SDS011;9685;54.338;18.672;2023-09-19T09:33:17;3.70;;;2.80;;
19105;SDS011;9685;54.338;18.672;2023-09-19T09:35:48;4.05;;;2.33;;
19105;SDS011;9685;54.338;18.672;2023-09-19T09:38:19;4.18;;;2.40;;
19105;SDS011;9685;54.338;18.672;2023-09-19T09:40:52;3.05;;;2.60;;
19105;SDS011;9685;54.338;18.672;2023-09-19T09:43:25;3.42;;;2.25;;
19105;SDS011;9685;54.338;18.672;2023-09-19T09:46:13;4.30;;;2.63;;
19105;SDS011;9685;54.338;18.672;2023-09-19T09:49:10;3.35;;;2.22;;
19105;SDS011;9685;54.338;18.672;2023-09-19T09:51:58;2.72;;;2.42;;
19105;SDS011;9685;54.338;18.672;2023-09-19T09:54:30;3.13;;;2.45;;
19105;SDS011;9685;54.338;18.672;2023-09-19T09:57:03;4.30;;;2.30;;
19105;SDS011;9685;54.338;18.672;2023-09-19T09:59:46;2.80;;;2.25;;
19105;SDS011;9685;54.338;18.672;2023-09-19T10:02:15;2.85;;;2.20;;
19105;SDS011;9685;54.338;18.672;2023-09-19T10:04:49;2.65;;;2.00;;
19105;SDS011;9685;54.338;18.672;2023-09-19T10:07:34;3.10;;;2.22;;
19105;SDS011;9685;54.338;18.672;2023-09-19T10:10:06;2.28;;;2.08;;
19105;SDS011;9685;54.338;18.672;2023-09-19T10:12:45;3.50;;;2.20;;
19105;SDS011;9685;54.338;18.672;2023-09-19T10:15:14;3.05;;;2.33;;
19105;SDS011;9685;54.338;18.672;2023-09-19T10:17:43;4.43;;;2.50;;
19105;SDS011;9685;54.338;18.672;2023-09-19T10:20:14;4.05;;;2.33;;
19105;SDS011;9685;54.338;18.672;2023-09-19T10:22:58;4.65;;;2.42;;
19105;SDS011;9685;54.338;18.672;2023-09-19T10:25:27;2.47;;;2.10;;
19105;SDS011;9685;54.338;18.672;2023-09-19T10:27:57;3.08;;;2.45;;
19105;SDS011;9685;54.338;18.672;2023-09-19T10:30:27;2.20;;;2.00;;
19105;SDS011;9685;54.338;18.672;2023-09-19T10:33:00;6.25;;;2.10;;
19105;SDS011;9685;54.338;18.672;2023-09-19T10:35:27;4.93;;;2.10;;
19105;SDS011;9685;54.338;18.672;2023-09-19T10:37:56;5.85;;;2.03;;
19105;SDS011;9685;54.338;18.672;2023-09-19T10:40:26;2.42;;;2.20;;
19105;SDS011;9685;54.338;18.672;2023-09-19T10:43:00;5.22;;;2.15;;
19105;SDS011;9685;54.338;18.672;2023-09-19T10:45:32;3.22;;;2.22;;
19105;SDS011;9685;54.338;18.672;2023-09-19T10:48:00;6.70;;;2.20;;
19105;SDS011;9685;54.338;18.672;2023-09-19T10:50:29;5.70;;;2.50;;
19105;SDS011;9685;54.338;18.672;2023-09-19T10:53:03;3.90;;;2.00;;
19105;SDS011;9685;54.338;18.672;2023-09-19T10:55:33;2.38;;;1.80;;
19105;SDS011;9685;54.338;18.672;2023-09-19T10:58:03;4.38;;;1.90;;
19105;SDS011;9685;54.338;18.672;2023-09-19T11:00:52;2.45;;;1.80;;
19105;SDS011;9685;54.338;18.672;2023-09-19T11:03:21;2.83;;;1.85;;
19105;SDS011;9685;54.338;18.672;2023-09-19T11:06:02;11.35;;;2.45;;
19105;SDS011;9685;54.338;18.672;2023-09-19T11:11:41;4.22;;;1.90;;
19105;SDS011;9685;54.338;18.672;2023-09-19T11:14:15;3.05;;;2.03;;
19105;SDS011;9685;54.338;18.672;2023-09-19T11:25:48;3.13;;;2.00;;
19105;SDS011;9685;54.338;18.672;2023-09-19T11:28:31;5.15;;;2.20;;
19105;SDS011;9685;54.338;18.672;2023-09-19T11:31:40;2.63;;;1.95;;
19105;SDS011;9685;54.338;18.672;2023-09-19T11:40:35;3.92;;;2.03;;
19105;SDS011;9685;54.338;18.672;2023-09-19T11:46:06;4.82;;;1.98;;
19105;SDS011;9685;54.338;18.672;2023-09-19T11:48:38;3.22;;;2.00;;
19105;SDS011;9685;54.338;18.672;2023-09-19T11:51:13;3.67;;;2.00;;
19105;SDS011;9685;54.338;18.672;2023-09-19T11:53:51;5.80;;;2.33;;
19105;SDS011;9685;54.338;18.672;2023-09-19T11:56:19;4.03;;;1.90;;
19105;SDS011;9685;54.338;18.672;2023-09-19T11:58:49;3.22;;;2.13;;
19105;SDS011;9685;54.338;18.672;2023-09-19T12:01:22;3.40;;;2.03;;
19105;SDS011;9685;54.338;18.672;2023-09-19T12:03:54;4.80;;;2.30;;
19105;SDS011;9685;54.338;18.672;2023-09-19T12:06:23;2.70;;;2.00;;
19105;SDS011;9685;54.338;18.672;2023-09-19T12:08:50;3.72;;;1.92;;
19105;SDS011;9685;54.338;18.672;2023-09-19T12:11:19;4.25;;;2.30;;
19105;SDS011;9685;54.338;18.672;2023-09-19T12:13:49;5.10;;;2.63;;
19105;SDS011;9685;54.338;18.672;2023-09-19T12:16:18;2.95;;;2.22;;
19105;SDS011;9685;54.338;18.672;2023-09-19T12:18:49;3.55;;;2.20;;
19105;SDS011;9685;54.338;18.672;2023-09-19T12:21:23;3.75;;;2.10;;
19105;SDS011;9685;54.338;18.672;2023-09-19T12:23:58;3.08;;;1.85;;
19105;SDS011;9685;54.338;18.672;2023-09-19T12:26:40;3.40;;;2.00;;
19105;SDS011;9685;54.338;18.672;2023-09-19T12:29:18;2.67;;;2.10;;
19105;SDS011;9685;54.338;18.672;2023-09-19T12:31:52;3.33;;;1.92;;
19105;SDS011;9685;54.338;18.672;2023-09-19T12:34:25;2.22;;;1.90;;
19105;SDS011;9685;54.338;18.672;2023-09-19T12:37:06;2.33;;;1.58;;
19105;SDS011;9685;54.338;18.672;2023-09-19T12:39:41;4.13;;;1.70;;
19105;SDS011;9685;54.338;18.672;2023-09-19T12:42:10;3.28;;;1.95;;
19105;SDS011;9685;54.338;18.672;2023-09-19T12:44:40;5.32;;;2.15;;
19105;SDS011;9685;54.338;18.672;2023-09-19T12:47:10;3.17;;;1.60;;
19105;SDS011;9685;54.338;18.672;2023-09-19T12:52:42;2.20;;;1.80;;
19105;SDS011;9685;54.338;18.672;2023-09-19T12:55:22;4.15;;;1.90;;
19105;SDS011;9685;54.338;18.672;2023-09-19T12:57:59;3.72;;;1.88;;
19105;SDS011;9685;54.338;18.672;2023-09-19T13:00:35;5.38;;;2.03;;
19105;SDS011;9685;54.338;18.672;2023-09-19T13:03:16;2.55;;;1.80;;
19105;SDS011;9685;54.338;18.672;2023-09-19T13:05:49;2.00;;;1.52;;
19105;SDS011;9685;54.338;18.672;2023-09-19T13:08:20;3.67;;;1.90;;
19105;SDS011;9685;54.338;18.672;2023-09-19T13:11:05;2.30;;;1.85;;
19105;SDS011;9685;54.338;18.672;2023-09-19T13:13:35;3.92;;;1.80;;
19105;SDS011;9685;54.338;18.672;2023-09-19T13:16:03;4.18;;;1.90;;
19105;SDS011;9685;54.338;18.672;2023-09-19T13:18:41;3.40;;;1.90;;
19105;SDS011;9685;54.338;18.672;2023-09-19T13:21:14;4.80;;;2.00;;
19105;SDS011;9685;54.338;18.672;2023-09-19T13:26:45;3.85;;;1.88;;
19105;SDS011;9685;54.338;18.672;2023-09-19T13:29:15;2.45;;;1.80;;
19105;SDS011;9685;54.338;18.672;2023-09-19T13:31:45;4.22;;;1.70;;
19105;SDS011;9685;54.338;18.672;2023-09-19T13:34:12;1.90;;;1.60;;
19105;SDS011;9685;54.338;18.672;2023-09-19T13:36:42;4.47;;;2.10;;
19105;SDS011;9685;54.338;18.672;2023-09-19T13:39:09;2.55;;;2.00;;
19105;SDS011;9685;54.338;18.672;2023-09-19T13:41:38;4.90;;;1.83;;
19105;SDS011;9685;54.338;18.672;2023-09-19T13:44:05;2.38;;;1.60;;
19105;SDS011;9685;54.338;18.672;2023-09-19T13:46:33;3.33;;;1.60;;
19105;SDS011;9685;54.338;18.672;2023-09-19T13:49:00;4.30;;;2.00;;
19105;SDS011;9685;54.338;18.672;2023-09-19T13:51:28;3.20;;;2.13;;
19105;SDS011;9685;54.338;18.672;2023-09-19T13:53:58;2.10;;;1.90;;
19105;SDS011;9685;54.338;18.672;2023-09-19T13:56:25;2.20;;;2.00;;
19105;SDS011;9685;54.338;18.672;2023-09-19T13:58:53;3.65;;;2.10;;
19105;SDS011;9685;54.338;18.672;2023-09-19T14:01:20;5.07;;;2.40;;
19105;SDS011;9685;54.338;18.672;2023-09-19T14:03:47;4.63;;;2.10;;
19105;SDS011;9685;54.338;18.672;2023-09-19T14:06:16;2.92;;;2.00;;
19105;SDS011;9685;54.338;18.672;2023-09-19T14:08:43;4.53;;;2.00;;
19105;SDS011;9685;54.338;18.672;2023-09-19T14:11:13;2.33;;;1.88;;
19105;SDS011;9685;54.338;18.672;2023-09-19T14:13:41;4.13;;;1.92;;
19105;SDS011;9685;54.338;18.672;2023-09-19T14:16:12;5.10;;;2.22;;
19105;SDS011;9685;54.338;18.672;2023-09-19T14:18:39;5.35;;;2.10;;
19105;SDS011;9685;54.338;18.672;2023-09-19T14:21:07;2.65;;;2.00;;
19105;SDS011;9685;54.338;18.672;2023-09-19T14:23:36;3.65;;;2.00;;
19105;SDS011;9685;54.338;18.672;2023-09-19T14:26:03;2.40;;;1.83;;
19105;SDS011;9685;54.338;18.672;2023-09-19T14:28:32;4.93;;;1.90;;
19105;SDS011;9685;54.338;18.672;2023-09-19T14:31:03;3.28;;;2.20;;
19105;SDS011;9685;54.338;18.672;2023-09-19T14:33:31;3.28;;;1.98;;
19105;SDS011;9685;54.338;18.672;2023-09-19T14:35:58;2.35;;;2.00;;
19105;SDS011;9685;54.338;18.672;2023-09-19T14:38:28;3.10;;;2.03;;
19105;SDS011;9685;54.338;18.672;2023-09-19T14:40:58;4.50;;;2.10;;
19105;SDS011;9685;54.338;18.672;2023-09-19T14:43:26;6.43;;;2.20;;
19105;SDS011;9685;54.338;18.672;2023-09-19T14:45:55;3.10;;;2.20;;
19105;SDS011;9685;54.338;18.672;2023-09-19T14:48:23;2.92;;;2.70;;
19105;SDS011;9685;54.338;18.672;2023-09-19T14:50:51;3.35;;;2.10;;
19105;SDS011;9685;54.338;18.672;2023-09-19T14:53:18;3.45;;;1.80;;
19105;SDS011;9685;54.338;18.672;2023-09-19T14:55:45;4.55;;;2.05;;
19105;SDS011;9685;54.338;18.672;2023-09-19T14:58:16;2.50;;;1.90;;
19105;SDS011;9685;54.338;18.672;2023-09-19T15:00:44;2.10;;;1.88;;
19105;SDS011;9685;54.338;18.672;2023-09-19T15:03:13;6.07;;;2.00;;
19105;SDS011;9685;54.338;18.672;2023-09-19T15:05:40;3.25;;;1.90;;
19105;SDS011;9685;54.338;18.672;2023-09-19T15:08:07;2.13;;;1.90;;
19105;SDS011;9685;54.338;18.672;2023-09-19T15:10:34;2.60;;;2.03;;
19105;SDS011;9685;54.338;18.672;2023-09-19T15:13:01;4.47;;;1.90;;
19105;SDS011;9685;54.338;18.672;2023-09-19T15:15:29;2.10;;;1.90;;
19105;SDS011;9685;54.338;18.672;2023-09-19T15:17:57;3.53;;;1.98;;
19105;SDS011;9685;54.338;18.672;2023-09-19T15:20:26;4.45;;;2.10;;